createdAt,value
2018-06-02T00:01:40.056Z,60.10
2018-06-02T00:04:09.594Z,60.20
2018-06-02T00:06:38.259Z,60.30
2018-06-02T00:09:07.584Z,60.80
2018-06-02T00:11:36.209Z,61.00
2018-06-02T00:14:04.571Z,61.40
2018-06-02T00:16:33.318Z,61.50
2018-06-02T00:19:01.208Z,61.60
2018-06-02T00:21:28.930Z,62.30
2018-06-02T00:30:06.260Z,63.00
2018-06-02T00:39:16.666Z,63.90
2018-06-02T00:41:45.169Z,64.70
2018-06-02T00:44:13.240Z,65.00
2018-06-02T00:46:42.263Z,65.20
2018-06-02T00:49:09.943Z,65.60
2018-06-02T00:51:41.029Z,66.20
2018-06-02T00:54:09.543Z,66.40
2018-06-02T00:56:39.147Z,67.00
2018-06-02T00:59:07.188Z,67.50
2018-06-02T01:01:36.694Z,67.30
2018-06-02T01:04:04.719Z,67.10
2018-06-02T01:06:32.323Z,67.50
2018-06-02T01:09:00.813Z,67.60
2018-06-02T01:11:30.039Z,68.40
2018-06-02T01:17:00.119Z,68.50
2018-06-02T01:19:27.803Z,68.60
2018-06-02T01:21:55.522Z,68.30
2018-06-02T01:24:23.149Z,68.10
2018-06-02T01:26:50.783Z,67.90
2018-06-02T01:29:18.706Z,68.00
2018-06-02T01:31:50.800Z,68.50
2018-06-02T01:34:18.981Z,68.90
2018-06-02T01:36:48.463Z,68.60
2018-06-02T01:42:09.683Z,68.50
2018-06-02T01:44:37.502Z,68.70
2018-06-02T01:47:06.179Z,68.20
2018-06-02T01:49:34.044Z,68.50
2018-06-02T01:52:02.198Z,68.40
2018-06-02T01:54:30.105Z,68.70
2018-06-02T01:56:57.764Z,68.50
2018-06-02T01:59:25.855Z,68.30
2018-06-02T02:01:55.400Z,68.20
2018-06-02T02:04:38.057Z,68.20
2018-06-02T02:07:06.510Z,67.90
2018-06-02T02:09:34.532Z,68.00
2018-06-02T02:12:02.315Z,68.20
2018-06-02T02:14:30.071Z,68.70
2018-06-02T02:16:57.837Z,69.00
2018-06-02T02:19:26.371Z,68.90
2018-06-02T02:21:54.500Z,69.10
2018-06-02T02:24:22.522Z,69.30
2018-06-02T02:26:57.623Z,69.30
2018-06-02T02:29:25.593Z,69.80
2018-06-02T02:31:54.604Z,70.20
2018-06-02T02:34:22.512Z,71.40
2018-06-02T02:36:50.444Z,70.80
2018-06-02T02:39:18.369Z,70.00
2018-06-02T02:41:46.034Z,70.90
2018-06-02T02:44:13.883Z,71.00
2018-06-02T02:46:42.539Z,70.20
2018-06-02T02:55:13.075Z,71.20
2018-06-02T02:57:40.843Z,71.40
2018-06-02T03:00:08.599Z,71.60
2018-06-02T03:02:36.318Z,71.40
2018-06-02T03:05:04.857Z,71.20
2018-06-02T03:07:33.869Z,70.90
2018-06-02T03:10:02.651Z,70.90
2018-06-02T03:12:31.032Z,71.10
2018-06-02T03:14:59.733Z,71.10
2018-06-02T03:20:30.771Z,70.70
2018-06-02T03:22:58.843Z,69.30
2018-06-02T03:25:27.142Z,69.20
2018-06-02T03:27:55.013Z,70.30
2018-06-02T03:30:22.623Z,69.90
2018-06-02T03:32:50.976Z,69.30
2018-06-02T03:35:19.387Z,69.30
2018-06-02T03:37:47.633Z,69.00
2018-06-02T03:40:17.208Z,66.80
2018-06-02T03:57:26.511Z,65.20
2018-06-02T04:00:00.003Z,65.40
2018-06-02T04:02:28.400Z,65.30
2018-06-02T04:04:57.008Z,64.60
2018-06-02T04:07:24.843Z,64.40
2018-06-02T04:09:54.371Z,64.70
2018-06-02T04:12:24.598Z,64.60
2018-06-02T04:14:52.895Z,64.20
2018-06-02T04:17:21.727Z,63.90
2018-06-02T04:20:06.613Z,63.50
2018-06-02T04:22:34.580Z,62.50
2018-06-02T04:25:03.222Z,62.00
2018-06-02T04:39:52.636Z,61.30
2018-06-02T04:42:21.239Z,59.70
2018-06-02T04:44:49.731Z,59.20
2018-06-02T04:47:18.547Z,59.50
2018-06-02T04:49:47.252Z,59.10
2018-06-02T04:52:15.699Z,59.10
2018-06-02T04:54:44.119Z,58.80
2018-06-02T04:57:14.183Z,57.70
2018-06-02T05:05:52.281Z,55.80
2018-06-02T05:11:04.209Z,55.70
2018-06-02T05:13:33.269Z,54.60
2018-06-02T05:16:04.159Z,54.20
2018-06-02T05:21:12.019Z,52.70
2018-06-02T05:23:49.921Z,52.40
2018-06-02T05:26:17.781Z,52.40
2018-06-02T05:28:45.447Z,52.10
2018-06-02T05:31:13.833Z,52.60
2018-06-02T05:42:24.091Z,51.90
2018-06-02T05:47:31.736Z,52.40
2018-06-02T05:58:54.346Z,52.20
2018-06-02T06:04:13.725Z,52.00
2018-06-02T06:07:01.803Z,52.20
2018-06-02T06:44:54.303Z,50.80
2018-06-02T06:47:35.039Z,51.40
2018-06-02T06:55:57.551Z,50.50
2018-06-02T07:04:41.211Z,50.30
2018-06-02T07:07:09.727Z,50.40
2018-06-02T07:12:35.422Z,50.10
2018-06-02T07:26:39.249Z,49.40
2018-06-02T07:31:00.316Z,49.60
2018-06-02T07:41:58.791Z,49.20
2018-06-02T08:02:29.998Z,48.90
2018-06-02T08:10:44.870Z,48.20
2018-06-02T08:13:12.871Z,47.90
2018-06-02T08:15:41.416Z,48.20
2018-06-02T08:18:09.834Z,48.60
2018-06-02T08:23:38.389Z,48.80
2018-06-02T08:29:30.048Z,48.10
2018-06-02T08:35:00.733Z,47.90
2018-06-02T08:40:44.779Z,49.10
2018-06-02T08:49:18.523Z,46.20
2018-06-02T08:57:52.059Z,46.90
2018-06-02T09:09:39.059Z,43.20
2018-06-02T09:18:13.242Z,42.50
2018-06-02T09:21:04.935Z,43.00
2018-06-02T09:29:41.827Z,44.40
2018-06-02T09:47:30.386Z,44.90
2018-06-02T09:53:17.406Z,45.70
2018-06-02T10:01:51.591Z,46.10
2018-06-02T10:07:37.399Z,45.20
2018-06-02T11:38:47.975Z,42.60
2018-06-02T14:26:17.499Z,36.60
2018-06-02T15:32:53.456Z,34.20
2018-06-02T15:38:17.078Z,34.90
2018-06-02T15:40:44.760Z,34.60
2018-06-02T20:42:53.720Z,56.00
